Little Canada, Minnesota
Current Conditions -  °F | °C
As of 9:53 AM on Thursday 23 Oct 2014 (Local Time) from KSTP Reporting Station
Overcast Overcast  
Wind Chill: 53°   Ceiling: 900
Heat Index: 53°   Visibility: 9mi
Dew Point: 51°   Wind: 6mph
Humidity: 93%   Direction: 150°SSE
Pressure: 30.01"   Gusts: NA
Location:  44.9981°N, 93.0983°W
Report Text: KSTP 231453Z 15005KT 9SM OVC009 12/11 A3001 RMK AO2 SLP161 T01170106 50003
Loading
Personal Weather Stations






























Interactive Weather Map
Tropical Storm Tracking
New forecast layout! Learn more

10-Day Weather Forecast

Advertisements
Track Severe Weather on mobile